Time;durP1;ratioP1;P1;durP2;ratioP2;P2;SDS_P1;SDS_P2;PMS_P1;PMS_P2;Temp;Humidity;BMP_temperature;BMP_pressure;BME280_temperature;BME280_humidity;BME280_pressure;Samples;Min_cycle;Max_cycle;Signal;HPM_P1;HPM_P2
2023/07/11 00:02:49;;;;;;;3.03;1.30;;;;;;;22.54;48.72;100507.31;10249551;28;20047;-62
2023/07/11 00:07:50;;;;;;;3.08;1.35;;;;;;;22.55;48.83;100506.25;10263714;28;20104;-62
2023/07/11 00:12:52;;;;;;;1.92;1.60;;;;;;;22.58;48.80;100503.00;10258801;28;20127;-63
2023/07/11 00:17:53;;;;;;;4.10;1.02;;;;;;;22.54;49.01;100501.00;10268788;28;20043;-62
2023/07/11 00:22:55;;;;;;;4.70;1.45;;;;;;;22.49;49.15;100499.03;10258285;28;20074;-63
2023/07/11 00:27:56;;;;;;;3.03;1.20;;;;;;;22.49;49.59;100504.53;10261901;28;20051;-62
2023/07/11 00:32:58;;;;;;;2.50;1.42;;;;;;;22.45;49.71;100505.25;10264365;28;20065;-60
2023/07/11 00:37:59;;;;;;;2.65;2.00;;;;;;;22.39;49.94;100498.88;10257950;28;20059;-63
2023/07/11 00:43:01;;;;;;;1.75;1.08;;;;;;;22.32;49.98;100490.84;10257410;28;20066;-60
2023/07/11 00:48:03;;;;;;;3.28;1.02;;;;;;;22.23;50.02;100486.81;10263768;28;20059;-60
2023/07/11 00:53:05;;;;;;;2.00;1.10;;;;;;;22.12;49.91;100490.50;10265110;28;20450;-61
2023/07/11 00:58:07;;;;;;;2.60;1.30;;;;;;;22.01;50.43;100485.91;10259245;28;20055;-61
2023/07/11 01:03:08;;;;;;;3.83;1.65;;;;;;;21.89;50.30;100481.34;10261635;28;20525;-61
2023/07/11 01:08:11;;;;;;;2.60;1.23;;;;;;;21.84;50.41;100484.00;10264623;28;20054;-60
2023/07/11 01:13:12;;;;;;;3.33;1.20;;;;;;;21.78;50.47;100479.50;10256238;28;20066;-61
2023/07/11 01:18:14;;;;;;;2.70;1.30;;;;;;;21.76;51.00;100478.91;10264652;28;20054;-61
2023/07/11 01:23:15;;;;;;;1.95;1.10;;;;;;;21.74;50.94;100478.34;10260788;28;20059;-60
2023/07/11 01:28:17;;;;;;;3.95;1.25;;;;;;;21.71;50.88;100473.38;10260354;28;20059;-60
2023/07/11 01:33:18;;;;;;;2.38;1.08;;;;;;;21.68;50.83;100482.06;10248768;28;20406;-60
2023/07/11 01:38:23;;;;;;;3.42;1.50;;;;;;;21.61;50.67;100465.81;10259933;28;20510;-60
2023/07/11 01:43:26;;;;;;;1.80;1.00;;;;;;;21.63;50.75;100469.13;10264899;28;20063;-61
2023/07/11 01:48:27;;;;;;;5.30;1.10;;;;;;;21.61;50.99;100452.13;10259236;28;20414;-62
2023/07/11 01:53:28;;;;;;;4.97;1.63;;;;;;;21.46;50.90;100449.94;10260953;28;20481;-60
2023/07/11 01:58:31;;;;;;;1.98;1.10;;;;;;;21.45;51.21;100455.69;10259551;28;20074;-60
2023/07/11 02:03:33;;;;;;;4.13;1.30;;;;;;;21.43;51.70;100455.91;10264726;28;20050;-60
2023/07/11 02:08:35;;;;;;;5.18;1.00;;;;;;;21.37;51.31;100457.69;10259370;28;20386;-61
2023/07/11 02:13:36;;;;;;;5.38;1.35;;;;;;;21.24;51.52;100446.22;10254589;28;20051;-61
2023/07/11 02:18:37;;;;;;;2.83;1.02;;;;;;;21.06;51.93;100449.97;10260709;28;20043;-60
2023/07/11 02:23:39;;;;;;;4.93;1.48;;;;;;;20.89;52.56;100445.28;10255376;28;20079;-62
2023/07/11 02:28:40;;;;;;;4.07;1.60;;;;;;;20.92;52.33;100450.25;10259169;28;20152;-62
2023/07/11 02:33:42;;;;;;;2.33;1.30;;;;;;;20.90;52.47;100436.00;10258053;28;20680;-60
2023/07/11 02:38:43;;;;;;;4.85;1.45;;;;;;;20.87;52.56;100435.66;10262384;28;20410;-61
2023/07/11 02:43:46;;;;;;;3.92;1.80;;;;;;;20.82;52.99;100439.13;10261046;28;20428;-61
2023/07/11 02:48:48;;;;;;;2.03;1.10;;;;;;;20.83;52.90;100437.22;10258659;28;20402;-61
2023/07/11 02:53:50;;;;;;;4.82;1.48;;;;;;;20.84;52.76;100430.69;10258274;28;20506;-61
2023/07/11 02:58:51;;;;;;;3.63;1.88;;;;;;;20.84;53.03;100426.03;10260867;28;20119;-61
2023/07/11 03:03:53;;;;;;;3.58;1.40;;;;;;;20.83;53.16;100432.56;10261171;28;20051;-60
2023/07/11 03:08:54;;;;;;;5.85;2.45;;;;;;;20.81;53.32;100421.06;10254981;28;20055;-62
2023/07/11 03:13:56;;;;;;;4.72;1.73;;;;;;;20.73;53.28;100433.19;10255680;28;20098;-60
2023/07/11 03:18:57;;;;;;;6.78;2.25;;;;;;;20.57;53.95;100429.28;10256670;28;20122;-61
2023/07/11 03:23:58;;;;;;;4.25;2.03;;;;;;;20.47;54.08;100422.78;10252207;28;20162;-61
2023/07/11 03:29:00;;;;;;;4.70;2.30;;;;;;;20.54;53.91;100418.84;10258324;28;20056;-60
2023/07/11 03:34:01;;;;;;;4.50;1.60;;;;;;;20.50;53.96;100412.19;10249626;28;20368;-60
2023/07/11 03:39:03;;;;;;;6.07;1.67;;;;;;;20.50;54.27;100409.47;10244819;28;20053;-61
2023/07/11 03:44:05;;;;;;;3.33;1.60;;;;;;;20.55;53.85;100408.75;10261787;28;20058;-63
2023/07/11 03:49:06;;;;;;;6.50;2.35;;;;;;;20.56;54.02;100405.78;10257413;28;20102;-60
2023/07/11 03:54:07;;;;;;;4.07;1.50;;;;;;;20.54;54.32;100388.81;10252584;28;20061;-60
2023/07/11 03:59:09;;;;;;;8.07;2.67;;;;;;;20.49;54.55;100391.41;10254571;28;20055;-61
2023/07/11 04:04:10;;;;;;;4.78;1.98;;;;;;;20.42;54.15;100385.28;10261169;28;20091;-61
2023/07/11 04:09:12;;;;;;;6.18;2.30;;;;;;;20.47;54.06;100381.81;10259382;28;20051;-60
2023/07/11 04:14:13;;;;;;;5.25;2.03;;;;;;;20.45;54.63;100392.97;10257979;28;20062;-60
2023/07/11 04:19:16;;;;;;;5.25;2.22;;;;;;;20.48;54.35;100378.84;10258912;28;20118;-61
2023/07/11 04:24:17;;;;;;;3.70;2.10;;;;;;;20.50;54.86;100382.16;10259159;28;20046;-61
2023/07/11 04:29:19;;;;;;;3.42;1.95;;;;;;;20.58;54.81;100395.44;10258047;28;20058;-60
2023/07/11 04:34:20;;;;;;;8.93;2.00;;;;;;;20.67;54.75;100382.25;10259466;28;20058;-62
2023/07/11 04:39:22;;;;;;;4.47;1.90;;;;;;;20.67;54.20;100395.09;10262929;28;20483;-60
2023/07/11 04:44:23;;;;;;;3.75;1.95;;;;;;;20.73;54.77;100391.38;10257867;28;20055;-60
2023/07/11 04:49:24;;;;;;;3.25;1.90;;;;;;;20.79;54.46;100382.22;10255993;28;20410;-59
2023/07/11 04:54:26;;;;;;;2.50;1.77;;;;;;;20.89;54.37;100374.25;10257567;28;20549;-64
2023/07/11 04:59:27;;;;;;;5.50;2.50;;;;;;;20.94;54.38;100377.06;10264742;28;20154;-62
2023/07/11 05:04:29;;;;;;;6.95;2.67;;;;;;;21.01;54.16;100376.94;10260474;28;20055;-60
2023/07/11 05:09:30;;;;;;;3.80;1.92;;;;;;;21.05;54.15;100377.25;10259857;28;20039;-60
2023/07/11 05:14:32;;;;;;;4.55;2.42;;;;;;;21.13;54.71;100376.84;10262423;28;20053;-64
2023/07/11 05:19:33;;;;;;;4.68;2.25;;;;;;;21.31;54.36;100375.81;10254297;28;20055;-60
2023/07/11 05:24:34;;;;;;;5.65;2.65;;;;;;;21.48;54.20;100371.19;10256990;28;20059;-61
2023/07/11 05:29:36;;;;;;;4.75;2.35;;;;;;;21.64;53.97;100374.19;10247992;28;20059;-62
2023/07/11 05:34:38;;;;;;;3.63;2.03;;;;;;;21.70;53.70;100365.84;10257651;28;20313;-70
2023/07/11 05:39:39;;;;;;;3.53;2.30;;;;;;;21.86;53.39;100355.97;10255484;28;20463;-73
2023/07/11 05:44:41;;;;;;;5.10;1.98;;;;;;;21.97;53.98;100357.75;10258573;28;20051;-71
2023/07/11 05:49:42;;;;;;;3.13;2.13;;;;;;;22.06;53.65;100351.84;10252405;28;20061;-64
2023/07/11 05:54:44;;;;;;;3.85;2.30;;;;;;;22.26;53.48;100351.34;10260909;28;20063;-70
2023/07/11 05:59:45;;;;;;;4.63;1.95;;;;;;;22.50;53.26;100346.44;10256432;28;20494;-69
2023/07/11 06:04:46;;;;;;;3.40;1.90;;;;;;;22.75;52.79;100348.66;10256112;28;20564;-66
2023/07/11 06:09:48;;;;;;;2.33;1.52;;;;;;;23.02;52.31;100343.19;10265737;28;20051;-67
2023/07/11 06:14:50;;;;;;;2.67;1.77;;;;;;;23.16;52.05;100336.22;10258591;28;20061;-68
2023/07/11 06:19:51;;;;;;;4.85;1.90;;;;;;;23.21;51.89;100332.69;10256562;28;20395;-72
2023/07/11 06:24:52;;;;;;;4.43;1.98;;;;;;;23.40;51.60;100315.84;10257580;28;20071;-75
2023/07/11 06:29:54;;;;;;;3.50;2.10;;;;;;;23.64;51.13;100317.13;10261079;28;20047;-70
2023/07/11 06:34:55;;;;;;;3.67;1.88;;;;;;;23.89;50.78;100313.72;10255108;28;20058;-74
2023/07/11 06:39:57;;;;;;;6.15;2.58;;;;;;;23.99;50.60;100310.22;10254579;28;20058;-71
2023/07/11 06:44:58;;;;;;;3.28;1.92;;;;;;;24.07;50.45;100307.00;10257053;28;20055;-70
2023/07/11 06:50:00;;;;;;;5.47;2.33;;;;;;;24.25;49.97;100304.84;10256765;28;20049;-71
2023/07/11 06:55:01;;;;;;;3.42;2.25;;;;;;;24.49;49.96;100302.50;10251128;28;20047;-73
2023/07/11 07:00:05;;;;;;;3.88;2.33;;;;;;;24.75;48.93;100281.41;10263610;28;20050;-67
2023/07/11 07:05:07;;;;;;;4.05;2.67;;;;;;;25.00;48.95;100286.13;10256826;28;20054;-70
2023/07/11 07:10:08;;;;;;;4.93;2.45;;;;;;;25.20;48.44;100287.22;10254729;28;20047;-72
2023/07/11 07:15:10;;;;;;;4.32;2.08;;;;;;;25.39;48.00;100279.28;10251762;28;20522;-65
2023/07/11 07:20:12;;;;;;;3.53;1.95;;;;;;;25.51;47.12;100282.56;10253712;28;20055;-70
2023/07/11 07:25:14;;;;;;;5.93;2.40;;;;;;;25.57;47.03;100270.44;10251339;28;20062;-72
2023/07/11 07:30:25;;;;;;;2.88;1.92;;;;;;;25.66;46.52;100260.50;10255570;28;20051;-72
2023/07/11 07:35:26;;;;;;;4.68;1.63;;;;;;;25.84;46.19;100259.09;10262519;28;20403;-72
2023/07/11 07:40:28;;;;;;;2.90;1.73;;;;;;;26.07;45.50;100256.84;10280136;28;20110;-64
2023/07/11 07:45:29;;;;;;;5.75;2.42;;;;;;;26.28;45.02;100255.66;10274293;28;20074;-65
2023/07/11 07:50:31;;;;;;;5.18;2.10;;;;;;;26.49;44.50;100255.53;10270733;28;20056;-65
2023/07/11 07:55:36;;;;;;;8.80;2.58;;;;;;;26.66;44.56;100257.94;10265595;28;20414;-64
2023/07/11 08:00:38;;;;;;;6.10;2.70;;;;;;;26.98;44.17;100254.66;10261343;28;20067;-67
2023/07/11 08:05:39;;;;;;;4.18;2.05;;;;;;;27.18;43.57;100239.06;10263712;28;20047;-64
2023/07/11 08:10:40;;;;;;;4.03;1.70;;;;;;;27.35;42.90;100239.47;10266254;28;20039;-64
2023/07/11 08:15:42;;;;;;;6.75;2.25;;;;;;;27.46;42.44;100227.22;10262268;28;20039;-64
2023/07/11 08:20:44;;;;;;;4.85;2.05;;;;;;;27.62;42.08;100221.53;10264259;28;20054;-64
2023/07/11 08:25:53;;;;;;;3.35;1.52;;;;;;;27.95;41.30;100211.50;10266096;28;20065;-63
2023/07/11 08:30:55;;;;;;;5.28;2.17;;;;;;;28.17;41.11;100204.59;10263205;28;20051;-64
2023/07/11 08:35:57;;;;;;;3.13;1.70;;;;;;;28.44;39.97;100188.16;10262153;28;20055;-63
2023/07/11 08:41:11;;;;;;;3.03;1.90;;;;;;;28.66;39.53;100184.78;10267494;28;20655;-63
2023/07/11 08:46:14;;;;;;;8.88;2.35;;;;;;;28.76;39.07;100181.03;10254177;28;20047;-64
2023/07/11 08:51:31;;;;;;;6.22;1.92;;;;;;;29.04;39.15;100164.50;10263220;28;20070;-64
2023/07/11 08:56:39;;;;;;;7.93;1.67;;;;;;;29.28;38.68;100169.91;10257844;28;20070;-65
2023/07/11 09:02:10;;;;;;;3.60;1.98;;;;;;;29.65;37.21;100157.81;10258286;28;20577;-66
2023/07/11 09:07:31;;;;;;;5.97;2.35;;;;;;;29.98;36.90;100154.13;10261296;28;20130;-65
2023/07/11 09:12:44;;;;;;;6.38;1.98;;;;;;;30.08;36.04;100147.53;10261365;28;20051;-65
2023/07/11 09:18:05;;;;;;;6.90;2.17;;;;;;;30.20;36.04;100153.34;10263239;28;20105;-65
2023/07/11 09:23:18;;;;;;;4.85;1.40;;;;;;;30.38;34.96;100155.16;10265357;28;20062;-64
2023/07/11 09:28:41;;;;;;;3.78;1.67;;;;;;;30.28;34.68;100141.50;10262621;28;20118;-65
2023/07/11 09:33:51;;;;;;;3.78;1.65;;;;;;;30.51;34.62;100134.06;10263126;28;20050;-65
2023/07/11 09:38:58;;;;;;;4.20;1.63;;;;;;;30.97;34.15;100118.19;10257121;28;20066;-66
2023/07/11 09:43:59;;;;;;;3.40;1.85;;;;;;;31.33;32.80;100120.78;10259081;28;20062;-66
2023/07/11 09:49:04;;;;;;;3.88;1.73;;;;;;;31.48;32.49;100114.03;10267114;28;20050;-65
2023/07/11 09:54:23;;;;;;;6.03;2.20;;;;;;;31.44;32.43;100104.66;10260261;28;20089;-65
2023/07/11 09:59:25;;;;;;;2.20;1.60;;;;;;;31.57;31.69;100105.69;10258177;28;20053;-66
2023/07/11 10:04:29;;;;;;;3.72;1.90;;;;;;;31.92;31.26;100095.47;10258842;28;20085;-66
2023/07/11 10:09:42;;;;;;;4.70;1.73;;;;;;;32.13;30.66;100089.25;10259886;28;20359;-66
2023/07/11 10:14:46;;;;;;;4.05;1.88;;;;;;;32.19;30.53;100080.44;10241710;28;20057;-66
2023/07/11 10:19:58;;;;;;;3.80;1.55;;;;;;;32.28;30.35;100074.06;10261784;28;20561;-66
2023/07/11 10:25:28;;;;;;;4.90;1.52;;;;;;;32.59;29.79;100071.91;10255984;28;20050;-66
2023/07/11 10:30:34;;;;;;;2.85;1.20;;;;;;;32.91;29.39;100047.38;10241189;28;20076;-66
2023/07/11 10:35:37;;;;;;;1.98;1.10;;;;;;;33.03;29.26;100049.47;10257387;28;20046;-66
2023/07/11 10:40:44;;;;;;;3.97;2.25;;;;;;;33.11;28.98;100045.03;10260769;28;20046;-66
2023/07/11 10:45:48;;;;;;;4.28;1.60;;;;;;;33.43;28.77;100037.16;10256295;28;20055;-68
2023/07/11 10:50:58;;;;;;;3.40;1.55;;;;;;;33.79;28.31;100033.81;10268594;28;20046;-68
2023/07/11 10:56:15;;;;;;;3.20;1.67;;;;;;;33.77;28.06;100039.72;10257923;28;20050;-67
2023/07/11 11:01:23;;;;;;;4.90;1.75;;;;;;;33.80;28.14;100020.69;10261698;28;20050;-68
2023/07/11 11:07:02;;;;;;;5.03;1.67;;;;;;;33.83;28.63;100022.78;10270713;28;20069;-66
2023/07/11 11:12:23;;;;;;;2.90;1.50;;;;;;;34.01;28.78;100004.75;10278180;28;20086;-66
2023/07/11 11:17:27;;;;;;;5.18;1.88;;;;;;;34.29;28.61;100004.16;10277639;28;20043;-67
2023/07/11 11:22:53;;;;;;;4.80;1.60;;;;;;;34.55;28.83;99987.13;10275456;28;20506;-66
2023/07/11 11:28:15;;;;;;;3.92;1.60;;;;;;;34.84;28.14;99974.97;10274283;28;20051;-67
2023/07/11 11:33:39;;;;;;;4.95;1.70;;;;;;;34.76;28.53;99973.91;10285662;28;20047;-66
2023/07/11 11:38:58;;;;;;;6.43;3.30;;;;;;;34.83;28.22;99961.34;10286810;28;20047;-65
2023/07/11 11:44:02;;;;;;;2.92;1.58;;;;;;;34.78;28.51;99955.97;10286148;28;20051;-66
2023/07/11 11:49:09;;;;;;;3.63;1.88;;;;;;;35.20;28.59;99947.38;10284024;28;20053;-65
2023/07/11 11:54:51;;;;;;;2.67;2.03;;;;;;;35.37;28.53;99933.13;10278552;28;20047;-67
2023/07/11 11:59:54;;;;;;;3.45;2.47;;;;;;;35.52;28.40;99934.34;10270028;28;20039;-67
2023/07/11 12:05:20;;;;;;;3.25;1.70;;;;;;;35.68;28.30;99937.22;10263242;28;20043;-66
2023/07/11 12:10:25;;;;;;;3.35;2.08;;;;;;;35.59;27.97;99917.78;10262110;28;20070;-71
2023/07/11 12:15:36;;;;;;;3.17;1.98;;;;;;;35.39;28.23;99908.41;10267976;28;20047;-68
2023/07/11 12:20:37;;;;;;;3.55;2.15;;;;;;;35.59;27.44;99903.78;10267310;28;20058;-71
2023/07/11 12:25:39;;;;;;;4.72;2.35;;;;;;;35.70;26.65;99906.91;10265791;28;20042;-70
2023/07/11 12:30:44;;;;;;;3.17;2.00;;;;;;;35.78;26.95;99888.34;10273427;28;20066;-68
2023/07/11 12:35:48;;;;;;;5.18;2.28;;;;;;;35.80;26.74;99880.41;10269911;28;20050;-70
2023/07/11 12:41:26;;;;;;;4.63;2.13;;;;;;;35.98;26.94;99878.88;10266335;28;20073;-69
2023/07/11 12:46:45;;;;;;;2.25;2.05;;;;;;;36.24;26.57;99877.56;10267444;28;20066;-68
2023/07/11 12:51:47;;;;;;;4.50;1.80;;;;;;;36.40;26.35;99878.41;10276196;28;20114;-69
2023/07/11 12:56:51;;;;;;;4.78;2.30;;;;;;;36.84;25.93;99857.84;10246070;28;20286;-69
2023/07/11 13:01:56;;;;;;;4.93;2.03;;;;;;;37.05;25.86;99852.69;10265857;28;20252;-66
2023/07/11 13:06:58;;;;;;;5.78;3.03;;;;;;;37.25;25.15;99870.38;10256649;28;20123;-68
2023/07/11 13:11:59;;;;;;;2.97;1.95;;;;;;;37.39;24.73;99846.59;10262462;28;20055;-69
2023/07/11 13:17:02;;;;;;;6.88;2.08;;;;;;;37.34;24.43;99847.69;10254141;28;20043;-71
2023/07/11 13:22:03;;;;;;;4.45;2.10;;;;;;;37.50;24.13;99842.00;10258963;28;20058;-70
2023/07/11 13:27:05;;;;;;;5.63;3.03;;;;;;;37.24;24.15;99831.47;10257746;28;20066;-67
2023/07/11 13:32:15;;;;;;;5.03;2.45;;;;;;;37.29;24.46;99834.78;10237893;28;20508;-72
2023/07/11 13:37:22;;;;;;;3.35;2.22;;;;;;;38.15;23.39;99813.16;10253288;28;20061;-67
2023/07/11 13:42:27;;;;;;;5.90;2.28;;;;;;;38.87;23.13;99797.38;10258608;28;20042;-69
2023/07/11 13:47:40;;;;;;;2.63;2.15;;;;;;;39.49;22.60;99793.31;10257805;28;20046;-70
2023/07/11 13:52:48;;;;;;;;;;;;;;;40.36;22.74;99781.63;10255554;28;20055;-69
2023/07/11 13:57:50;;;;;;;6.03;2.33;;;;;;;41.32;20.98;99780.50;10256404;28;19962;-71
2023/07/11 14:02:52;;;;;;;6.00;2.65;;;;;;;41.94;20.21;99776.53;10267156;28;20090;-70
2023/07/11 14:07:57;;;;;;;3.10;2.25;;;;;;;42.75;19.09;99766.31;10260551;28;20050;-70
2023/07/11 14:12:59;;;;;;;3.55;2.40;;;;;;;43.14;18.50;99758.88;10281123;28;20054;-71
2023/07/11 14:18:00;;;;;;;4.68;2.30;;;;;;;42.40;18.94;99747.41;10283510;28;20517;-68
2023/07/11 14:23:02;;;;;;;4.95;2.33;;;;;;;41.72;20.11;99750.31;10284793;28;20058;-69
2023/07/11 14:28:05;;;;;;;4.80;3.35;;;;;;;40.26;21.19;99743.69;10259787;28;20063;-71
2023/07/11 14:33:20;;;;;;;5.97;3.00;;;;;;;39.81;21.43;99740.97;10266250;28;20055;-69
2023/07/11 14:38:21;;;;;;;4.15;2.45;;;;;;;41.16;20.28;99735.69;10270296;28;20058;-72
2023/07/11 14:43:26;;;;;;;6.22;2.65;;;;;;;41.54;20.26;99736.97;10253465;28;20067;-70
2023/07/11 14:48:29;;;;;;;6.00;2.60;;;;;;;41.32;20.16;99730.50;10272786;28;20674;-68
2023/07/11 14:53:36;;;;;;;4.90;2.40;;;;;;;41.11;20.34;99725.59;10276589;28;20054;-69
2023/07/11 14:58:38;;;;;;;6.00;2.78;;;;;;;41.31;20.01;99722.44;10261776;28;20411;-71
2023/07/11 15:03:40;;;;;;;5.85;3.03;;;;;;;40.90;20.57;99706.63;10278170;28;20055;-69
2023/07/11 15:09:02;;;;;;;5.40;3.03;;;;;;;41.26;20.19;99711.56;10281862;28;20063;-70
2023/07/11 15:14:15;;;;;;;4.07;2.63;;;;;;;41.86;19.62;99693.84;10279017;28;20063;-71
2023/07/11 15:19:25;;;;;;;4.60;2.78;;;;;;;41.63;20.27;99699.91;10284406;28;20047;-70
2023/07/11 15:24:33;;;;;;;2.38;2.15;;;;;;;41.83;19.94;99686.19;10281632;28;20055;-70
2023/07/11 15:29:35;;;;;;;3.78;2.78;;;;;;;42.12;20.30;99684.13;10274474;28;20059;-72
2023/07/11 15:34:36;;;;;;;4.82;2.30;;;;;;;42.32;18.92;99675.19;10261870;28;20071;-70
2023/07/11 15:39:37;;;;;;;2.80;2.40;;;;;;;42.32;18.76;99656.22;10267357;28;20136;-72
2023/07/11 15:44:50;;;;;;;3.53;2.20;;;;;;;42.07;18.83;99641.38;10262450;28;20051;-71
2023/07/11 15:49:51;;;;;;;4.30;2.35;;;;;;;41.48;19.53;99656.75;10267292;28;20040;-72
2023/07/11 15:54:52;;;;;;;6.25;2.60;;;;;;;41.49;19.61;99654.72;10263464;28;20059;-72
2023/07/11 15:59:55;;;;;;;6.05;2.55;;;;;;;41.40;19.49;99661.59;10269416;28;20055;-73
2023/07/11 16:04:56;;;;;;;3.60;2.25;;;;;;;40.24;20.39;99655.97;10254400;28;20074;-72
2023/07/11 16:09:58;;;;;;;2.58;2.38;;;;;;;39.62;20.97;99642.72;10257004;28;20062;-72
2023/07/11 16:14:59;;;;;;;3.53;2.08;;;;;;;39.22;20.89;99645.19;10257619;28;20057;-72
2023/07/11 16:20:01;;;;;;;4.43;2.40;;;;;;;38.93;20.89;99643.25;10252655;28;20043;-72
2023/07/11 16:25:08;;;;;;;3.47;2.10;;;;;;;38.96;20.68;99639.66;10245388;28;20055;-72
2023/07/11 16:30:15;;;;;;;6.88;2.35;;;;;;;38.46;20.69;99631.47;10264635;28;20406;-71
2023/07/11 16:35:19;;;;;;;2.28;1.77;;;;;;;38.19;21.08;99630.72;10271148;28;20375;-74
2023/07/11 16:40:22;;;;;;;;;;;;;;;38.09;21.08;99635.81;10277515;28;20051;-73
2023/07/11 16:45:30;;;;;;;8.63;1.85;;;;;;;37.80;21.28;99625.31;10253260;28;20381;-74
2023/07/11 16:50:33;;;;;;;3.78;2.38;;;;;;;37.59;22.05;99625.78;10246212;28;20046;-69
2023/07/11 16:55:35;;;;;;;5.30;2.72;;;;;;;37.42;22.15;99629.91;10240989;28;20070;-71
2023/07/11 17:00:36;;;;;;;2.50;2.10;;;;;;;37.04;22.19;99617.63;10243291;28;20054;-71
2023/07/11 17:05:38;;;;;;;4.65;1.95;;;;;;;37.01;22.19;99615.56;10249661;28;20047;-71
2023/07/11 17:10:40;;;;;;;5.07;2.08;;;;;;;36.79;22.24;99605.97;10243712;28;20047;-74
2023/07/11 17:15:41;;;;;;;3.00;1.98;;;;;;;36.57;23.02;99604.72;10256299;28;20058;-69
2023/07/11 17:20:43;;;;;;;4.53;2.30;;;;;;;36.34;23.09;99616.69;10256867;28;20055;-73
2023/07/11 17:25:46;;;;;;;3.78;2.33;;;;;;;36.12;23.45;99607.81;10249827;28;20081;-74
2023/07/11 17:30:48;;;;;;;6.80;2.13;;;;;;;36.05;23.58;99607.63;10256703;28;20059;-75
2023/07/11 17:35:50;;;;;;;3.70;2.47;;;;;;;35.91;23.60;99596.16;10240985;28;20058;-73
2023/07/11 17:40:53;;;;;;;5.18;2.45;;;;;;;35.71;23.84;99584.13;10256859;28;20058;-72
2023/07/11 17:45:54;;;;;;;3.95;2.15;;;;;;;35.55;24.05;99572.94;10248197;28;20482;-73
2023/07/11 17:51:16;;;;;;;4.45;1.85;;;;;;;35.46;24.37;99535.97;10249178;28;20043;-77
2023/07/11 17:56:18;;;;;;;4.35;2.90;;;;;;;35.46;24.33;99500.44;10230517;28;20055;-73
2023/07/11 18:01:20;;;;;;;4.20;2.75;;;;;;;35.42;25.01;99468.78;10243115;28;20047;-73
2023/07/11 18:06:23;;;;;;;3.25;2.28;;;;;;;35.19;25.90;99477.03;10245831;28;20143;-74
2023/07/11 18:11:25;;;;;;;4.88;2.17;;;;;;;34.94;26.05;99509.97;10252581;28;20502;-70
2023/07/11 18:16:28;;;;;;;6.40;2.00;;;;;;;34.81;26.30;99531.56;10254154;28;20050;-75
2023/07/11 18:21:30;;;;;;;5.43;2.38;;;;;;;34.78;26.33;99514.72;10261021;28;20043;-75
2023/07/11 18:26:32;;;;;;;5.28;2.83;;;;;;;34.63;27.12;99502.34;10238512;28;20051;-76
2023/07/11 18:31:33;;;;;;;5.43;2.50;;;;;;;34.33;27.67;99463.69;10238263;28;20061;-75
2023/07/11 18:36:35;;;;;;;4.50;3.25;;;;;;;34.24;29.39;99362.59;10253987;28;20173;-75
2023/07/11 18:41:36;;;;;;;4.35;2.80;;;;;;;34.10;29.12;99368.59;10244261;28;20057;-74
2023/07/11 18:46:37;;;;;;;5.05;3.15;;;;;;;33.82;30.34;99382.59;10253528;28;20063;-74
2023/07/11 18:51:39;;;;;;;4.10;2.45;;;;;;;33.86;30.60;99384.28;10243225;28;20067;-72
2023/07/11 18:56:41;;;;;;;7.43;3.35;;;;;;;33.57;30.96;99410.50;10248168;28;20050;-74
2023/07/11 19:01:44;;;;;;;7.60;3.55;;;;;;;33.44;30.92;99432.06;10240796;28;20046;-72
2023/07/11 19:06:48;;;;;;;5.72;3.15;;;;;;;33.46;31.00;99412.19;10244314;28;20054;-73
2023/07/11 19:11:50;;;;;;;4.55;2.50;;;;;;;33.52;30.62;99374.56;10252150;28;20453;-73
2023/07/11 19:16:51;;;;;;;4.45;2.58;;;;;;;33.55;31.20;99355.16;10261297;28;20058;-75
2023/07/11 19:21:52;;;;;;;6.72;3.38;;;;;;;33.38;31.35;99369.38;10256526;28;20148;-74
2023/07/11 19:26:54;;;;;;;4.28;2.70;;;;;;;33.14;32.04;99382.22;10253717;28;20039;-73
2023/07/11 19:31:57;;;;;;;6.20;2.85;;;;;;;32.91;32.26;99386.63;10253515;28;20062;-72
2023/07/11 19:36:59;;;;;;;5.07;2.58;;;;;;;32.79;32.61;99390.25;10249184;28;20074;-75
2023/07/11 19:42:00;;;;;;;9.05;5.65;;;;;;;32.71;33.63;99382.81;10256389;28;20051;-73
2023/07/11 19:47:02;;;;;;;6.72;4.55;;;;;;;32.50;33.76;99396.81;10255563;28;20074;-71
2023/07/11 19:52:09;;;;;;;6.00;3.38;;;;;;;32.31;34.43;99395.41;10262377;28;20106;-71
2023/07/11 19:57:18;;;;;;;8.55;4.65;;;;;;;32.15;35.04;99411.97;10258927;28;20382;-72
2023/07/11 20:02:20;;;;;;;6.20;3.08;;;;;;;32.00;35.07;99429.25;10243335;28;20050;-72
2023/07/11 20:07:23;;;;;;;8.60;3.40;;;;;;;31.80;35.31;99436.47;10255119;28;20572;-72
2023/07/11 20:12:30;;;;;;;4.95;3.30;;;;;;;31.64;35.88;99405.72;10267357;28;20046;-72
2023/07/11 20:17:32;;;;;;;6.05;4.15;;;;;;;31.62;36.24;99391.38;10265600;28;20139;-71
2023/07/11 20:22:33;;;;;;;8.23;4.47;;;;;;;31.49;36.56;99379.38;10250233;28;20506;-73
2023/07/11 20:27:35;;;;;;;6.05;3.90;;;;;;;31.20;37.21;99413.53;10266306;28;20532;-70
2023/07/11 20:32:36;;;;;;;6.38;3.85;;;;;;;30.98;37.66;99432.13;10253427;28;20059;-71
2023/07/11 20:37:39;;;;;;;7.28;3.90;;;;;;;30.86;37.89;99443.13;10268011;28;20050;-66
2023/07/11 20:42:43;;;;;;;6.57;3.60;;;;;;;30.78;38.08;99460.63;10267129;28;20046;-65
2023/07/11 20:47:45;;;;;;;8.45;4.18;;;;;;;30.77;38.57;99475.66;10270506;28;20043;-64
2023/07/11 20:52:49;;;;;;;6.47;3.47;;;;;;;30.67;38.74;99482.41;10267944;28;20061;-66
2023/07/11 20:57:51;;;;;;;8.55;3.20;;;;;;;30.46;39.06;99501.69;10261970;28;20058;-66
2023/07/11 21:02:53;;;;;;;6.70;3.50;;;;;;;30.40;38.87;99492.75;10265115;28;20127;-71
2023/07/11 21:07:55;;;;;;;5.05;3.83;;;;;;;27.65;48.14;99478.03;10259741;28;20051;-69
2023/07/11 21:12:58;;;;;;;7.72;4.30;;;;;;;26.95;50.74;99474.53;10259445;28;20067;-68
2023/07/11 21:17:59;;;;;;;7.63;4.15;;;;;;;26.79;51.58;99479.53;10262715;28;20059;-68
2023/07/11 21:23:02;;;;;;;9.52;4.32;;;;;;;26.63;53.04;99512.09;10258488;28;20059;-67
2023/07/11 21:28:13;;;;;;;9.32;3.80;;;;;;;26.46;53.91;99539.38;10259022;28;20055;-66
2023/07/11 21:33:17;;;;;;;10.30;4.88;;;;;;;26.45;54.21;99541.31;10254911;28;20055;-66
2023/07/11 21:38:24;;;;;;;9.18;4.63;;;;;;;26.44;54.60;99536.94;10258757;28;20109;-66
2023/07/11 21:43:26;;;;;;;11.68;5.15;;;;;;;26.60;55.25;99540.28;10263270;28;20399;-67
2023/07/11 21:48:27;;;;;;;7.75;4.00;;;;;;;26.84;54.43;99529.09;10261124;28;20053;-68
2023/07/11 21:53:30;;;;;;;6.60;3.92;;;;;;;27.10;53.73;99512.84;10256928;28;20043;-68
2023/07/11 21:58:31;;;;;;;9.00;4.30;;;;;;;27.20;53.21;99599.31;10261390;28;20051;-68
2023/07/11 22:03:35;;;;;;;8.25;4.30;;;;;;;27.25;53.44;99585.44;10257556;28;20054;-68
2023/07/11 22:08:37;;;;;;;9.65;3.88;;;;;;;27.40;52.85;99636.78;10262539;28;20054;-68
2023/07/11 22:13:39;;;;;;;7.00;3.83;;;;;;;26.80;55.34;99676.19;10262090;28;20055;-67
2023/07/11 22:18:40;;;;;;;7.75;4.13;;;;;;;26.21;57.61;99664.63;10240447;28;20142;-69
2023/07/11 22:23:42;;;;;;;7.35;3.72;;;;;;;25.48;59.33;99697.69;10258597;28;20102;-68
2023/07/11 22:28:44;;;;;;;4.82;3.40;;;;;;;25.36;60.35;99697.25;10256422;28;20086;-66
2023/07/11 22:33:46;;;;;;;9.65;4.60;;;;;;;25.22;60.86;99679.81;10263471;28;20059;-67
2023/07/11 22:38:48;;;;;;;8.30;3.00;;;;;;;25.10;61.61;99708.47;10259329;28;20142;-67
2023/07/11 22:43:49;;;;;;;11.05;3.35;;;;;;;25.07;61.50;99714.53;10260920;28;20051;-67
2023/07/11 22:48:51;;;;;;;5.85;3.60;;;;;;;25.03;61.89;99729.16;10260678;28;20587;-64
2023/07/11 22:53:52;;;;;;;5.90;2.83;;;;;;;25.01;61.54;99734.13;10259294;28;20156;-64
2023/07/11 22:58:54;;;;;;;3.95;2.85;;;;;;;24.93;62.08;99776.81;10251817;28;20059;-66
2023/07/11 23:03:55;;;;;;;2.80;2.53;;;;;;;24.85;61.96;99799.41;10252906;28;20058;-65
2023/07/11 23:08:57;;;;;;;3.60;2.08;;;;;;;24.82;62.47;99764.22;10263528;28;20065;-64
2023/07/11 23:13:59;;;;;;;8.00;2.22;;;;;;;23.39;67.21;99727.13;10255394;28;20113;-64
2023/07/11 23:19:03;;;;;;;7.00;2.05;;;;;;;22.58;70.28;99705.69;10260504;28;20071;-68
2023/07/11 23:24:07;;;;;;;8.13;3.47;;;;;;;22.31;71.12;99686.72;10260012;28;20118;-70
2023/07/11 23:29:14;;;;;;;7.20;3.45;;;;;;;22.23;71.88;99703.66;10262098;28;20074;-69